Aviation Digital Data Service (ADDS)

Output produced by METARs form (0037 UTC 22 December 2014)
found at http://www.aviationweather.gov/adds/metars/
 
KSEG 212353Z AUTO 00000KT 9SM CLR M04/M06 A3034 RMK AO2 SLP280 T10391061 10011 21039 53013
KSEG 212253Z AUTO 00000KT 10SM CLR M03/M07 A3033 RMK AO2 SLP276 T10331067
KSEG 212153Z AUTO 00000KT 10SM CLR M02/M06 A3031 RMK AO2 SLP269 T10221056
KSEG 212053Z AUTO 32003KT 10SM CLR 00/M06 A3030 RMK AO2 SLP266 T00001061 55006
KSEG 211953Z AUTO 04003KT 10SM OVC030 01/M06 A3030 RMK AO2 SLP265 T00111061
KSEG 211917Z AUTO 00000KT 10SM OVC030 01/M07 A3030 RMK AO2 T00111067
KSEG 211853Z AUTO 34005KT 10SM OVC029 01/M06 A3031 RMK AO2 SLP268 T00111061
KSEG 211753Z AUTO 36004KT 10SM OVC025 01/M06 A3032 RMK AO2 SLP272 T00061056 10006 21006 58010
KSEG 211653Z AUTO 36005KT 10SM OVC024 01/M06 A3034 RMK AO2 SLP278 T00061056
KSEG 211553Z AUTO 34005KT 10SM OVC023 00/M06 A3035 RMK AO2 SLP283 T00001056
KSEG 211453Z AUTO 31005KT 10SM OVC024 00/M06 A3035 RMK AO2 SLP283 T00001056 51015
KSEG 211353Z AUTO 31005KT 10SM OVC028 00/M06 A3033 RMK AO2 SLP277 T00001056
KSEG 211253Z AUTO 28003KT 10SM OVC028 M01/M05 A3032 RMK AO2 SLP274 T10061050
KSEG 211153Z AUTO 00000KT 10SM OVC027 M01/M06 A3031 RMK AO2 SLP268 T10061056 11006 21006 53004
KSEG 211132Z AUTO 29003KT 10SM OVC029 M01/M06 A3031 RMK AO2 T10061056
KSEG 211053Z AUTO 00000KT 10SM OVC031 M01/M06 A3030 RMK AO2 SLP265 T10061056
KSEG 210953Z AUTO 00000KT 10SM OVC029 M01/M06 A3029 RMK AO2 SLP262 T10061056
KSEG 210853Z AUTO 31003KT 10SM OVC028 M01/M06 A3029 RMK AO2 SLP263 T10061056 50004
KSEG 210753Z AUTO 30004KT 10SM OVC028 M01/M06 A3030 RMK AO2 SLP264 T10061056
KSEG 210653Z AUTO 29004KT 10SM OVC028 M01/M06 A3029 RMK AO2 SLP261 T10061056
KSEG 210553Z AUTO 30004KT 10SM OVC029 M01/M06 A3028 RMK AO2 SLP259 T10061056 10006 21006 56004
KSEG 210453Z AUTO 30003KT 10SM OVC029 00/M05 A3028 RMK AO2 SLP259 T00001050 400111011
KSEG 210420Z AUTO 00000KT 10SM OVC029 M01/M04 A3029 RMK AO2 T10061044
KSEG 210353Z AUTO 00000KT 10SM OVC030 00/M04 A3029 RMK AO2 SLP263 T00001044
KSEG 210253Z AUTO 00000KT 10SM OVC030 00/M06 A3029 RMK AO2 SLP263 T00001056 53001
KSEG 210153Z AUTO 00000KT 10SM OVC030 00/M05 A3027 RMK AO2 SLP257 T00001050
KSEG 210053Z AUTO 00000KT 10SM OVC031 00/M05 A3027 RMK AO2 SLP257 T00001050
KSEG 202353Z AUTO 00000KT 10SM OVC031 01/M06 A3029 RMK AO2 SLP263 T00061061 10011 20000 53012
KSEG 202253Z AUTO 00000KT 10SM OVC030 01/M06 A3027 RMK AO2 SLP255 T00061061
KSEG 202153Z AUTO 00000KT 9SM OVC030 01/M06 A3027 RMK AO2 SLP255 T00061056
KSEG 202113Z AUTO 00000KT 10SM OVC030 01/M07 A3026 RMK AO2 T00061067
KSEG 202106Z AUTO 00000KT 2 1/2SM HZ OVC030 01/M06 A3025 RMK AO2 T00061061
KSEG 202053Z AUTO 00000KT 10SM OVC030 01/M06 A3026 RMK AO2 SLP250 T00061061 53001
KSEG 202033Z AUTO 00000KT 10SM OVC030 01/M07 A3025 RMK AO2 T00061067
KSEG 201953Z AUTO 00000KT 10SM OVC029 01/M07 A3024 RMK AO2 SLP246 T00061067
KSEG 201853Z AUTO 00000KT 10SM OVC029 01/M06 A3025 RMK AO2 SLP248 T00111061
KSEG 201753Z AUTO 00000KT 10SM OVC027 01/M06 A3025 RMK AO2 SLP249 T00061061 10011 21011 58018
KSEG 201653Z AUTO 00000KT 10SM OVC027 00/M06 A3027 RMK AO2 SLP255 T00001061
KSEG 201553Z AUTO 00000KT 10SM OVC027 00/M07 A3029 RMK AO2 SLP263 T00001067
KSEG 201453Z AUTO 30006KT 10SM OVC028 M01/M07 A3030 RMK AO2 SLP267 T10061067 50014
KSEG 201353Z AUTO 00000KT 10SM OVC028 M01/M06 A3030 RMK AO2 SLP267 T10061061
KSEG 201253Z AUTO 00000KT 10SM OVC029 M01/M06 A3027 RMK AO2 SLP256 T10111061